createdAt,value
2022-11-25T00:00:38.594Z,9.70
2022-11-25T00:01:27.296Z,10.27
2022-11-25T00:02:14.493Z,10.30
2022-11-25T00:03:01.498Z,9.70
2022-11-25T00:03:49.244Z,10.48
2022-11-25T00:04:37.431Z,10.45
2022-11-25T00:05:26.161Z,10.93
2022-11-25T00:06:20.358Z,9.85
2022-11-25T00:07:07.345Z,10.27
2022-11-25T00:07:54.387Z,10.05
2022-11-25T00:08:42.530Z,10.52
2022-11-25T00:09:29.397Z,11.10
2022-11-25T00:10:16.445Z,10.90
2022-11-25T00:11:04.111Z,12.60
2022-11-25T00:11:51.034Z,11.32
2022-11-25T00:12:38.019Z,11.30
2022-11-25T00:13:25.075Z,11.40
2022-11-25T00:14:14.838Z,10.50
2022-11-25T00:15:01.854Z,12.10
2022-11-25T00:15:48.970Z,10.23
2022-11-25T00:16:41.509Z,11.30
2022-11-25T00:17:31.981Z,11.30
2022-11-25T00:18:18.990Z,11.12
2022-11-25T00:19:05.957Z,10.45
2022-11-25T00:19:52.920Z,12.57
2022-11-25T00:20:39.920Z,11.45
2022-11-25T00:21:29.023Z,11.05
2022-11-25T00:22:16.194Z,10.93
2022-11-25T00:23:03.120Z,12.02
2022-11-25T00:23:55.036Z,12.05
2022-11-25T00:24:41.978Z,11.77
2022-11-25T00:25:28.823Z,11.98
2022-11-25T00:26:16.738Z,12.68
2022-11-25T00:27:05.242Z,11.85
2022-11-25T00:27:53.329Z,11.38
2022-11-25T00:28:41.825Z,11.85
2022-11-25T00:29:28.809Z,12.63
2022-11-25T00:30:15.834Z,13.07
2022-11-25T00:31:11.924Z,12.60
2022-11-25T00:31:58.930Z,12.37
2022-11-25T00:32:45.975Z,12.73
2022-11-25T00:33:32.953Z,13.80
2022-11-25T00:34:19.849Z,13.18
2022-11-25T00:35:07.115Z,12.70
2022-11-25T00:35:54.136Z,13.57
2022-11-25T00:36:41.452Z,14.15
2022-11-25T00:37:28.452Z,13.65
2022-11-25T00:38:15.491Z,13.40
2022-11-25T00:39:13.832Z,13.35
2022-11-25T00:40:00.791Z,13.38
2022-11-25T00:41:07.629Z,12.95
2022-11-25T00:42:12.879Z,12.82
2022-11-25T00:43:18.526Z,13.98
2022-11-25T00:44:24.330Z,13.30
2022-11-25T00:45:11.398Z,11.40
2022-11-25T00:45:58.381Z,12.07
2022-11-25T00:46:45.324Z,12.60
2022-11-25T00:47:32.475Z,13.15
2022-11-25T00:48:19.311Z,12.65
2022-11-25T00:49:06.199Z,12.63
2022-11-25T00:49:55.079Z,12.07
2022-11-25T00:50:43.093Z,12.82
2022-11-25T00:51:30.069Z,11.98
2022-11-25T00:52:19.666Z,12.25
2022-11-25T00:53:06.638Z,12.40
2022-11-25T00:53:58.950Z,11.93
2022-11-25T00:54:50.167Z,12.73
2022-11-25T00:55:57.168Z,11.48
2022-11-25T00:56:44.168Z,10.82
2022-11-25T00:57:31.107Z,11.88
2022-11-25T00:58:18.036Z,12.30
2022-11-25T00:59:05.130Z,12.20
2022-11-25T00:59:52.141Z,11.80
2022-11-25T01:00:39.176Z,11.80
2022-11-25T01:01:26.448Z,12.00
2022-11-25T01:02:14.707Z,12.55
2022-11-25T01:03:01.682Z,11.30
2022-11-25T01:03:51.956Z,12.60
2022-11-25T01:04:39.017Z,12.77
2022-11-25T01:05:25.900Z,11.93
2022-11-25T01:06:12.902Z,11.07
2022-11-25T01:07:00.893Z,12.15
2022-11-25T01:07:47.949Z,12.45
2022-11-25T01:08:35.936Z,11.77
2022-11-25T01:09:23.461Z,12.93
2022-11-25T01:10:10.678Z,11.73
2022-11-25T01:11:01.685Z,12.85
2022-11-25T01:11:51.422Z,12.30
2022-11-25T01:12:38.420Z,12.37
2022-11-25T01:13:25.311Z,12.45
2022-11-25T01:14:12.530Z,12.77
2022-11-25T01:14:59.450Z,12.37
2022-11-25T01:15:46.372Z,11.35
2022-11-25T01:16:33.449Z,11.90
2022-11-25T01:17:20.394Z,12.37
2022-11-25T01:18:07.530Z,11.90
2022-11-25T01:18:54.581Z,11.68
2022-11-25T01:19:42.288Z,12.00
2022-11-25T01:20:29.318Z,12.40
2022-11-25T01:21:18.886Z,11.43
2022-11-25T01:22:06.816Z,11.20
2022-11-25T01:22:53.764Z,12.32
2022-11-25T01:23:41.949Z,11.25
2022-11-25T01:24:28.879Z,11.93
2022-11-25T01:25:15.780Z,11.10
2022-11-25T01:26:04.457Z,11.75
2022-11-25T01:26:51.383Z,11.65
2022-11-25T01:27:43.264Z,11.68
2022-11-25T01:28:30.480Z,11.57
2022-11-25T01:29:18.950Z,12.48
2022-11-25T01:30:06.718Z,12.00
2022-11-25T01:31:04.602Z,12.00
2022-11-25T01:31:51.669Z,11.85
2022-11-25T01:32:38.691Z,11.38
2022-11-25T01:33:25.785Z,10.68
2022-11-25T01:34:15.458Z,11.93
2022-11-25T01:35:02.376Z,11.12
2022-11-25T01:35:49.338Z,10.80
2022-11-25T01:36:36.246Z,11.10
2022-11-25T01:37:23.160Z,10.98
2022-11-25T01:38:10.178Z,11.57
2022-11-25T01:38:59.585Z,11.32
2022-11-25T01:39:46.471Z,12.40
2022-11-25T01:40:33.391Z,11.38
2022-11-25T01:41:20.978Z,11.57
2022-11-25T01:42:08.010Z,11.93
2022-11-25T01:42:54.927Z,10.82
2022-11-25T01:43:42.684Z,11.23
2022-11-25T01:44:32.042Z,11.05
2022-11-25T01:45:28.798Z,11.25
2022-11-25T01:46:21.931Z,11.23
2022-11-25T01:47:11.614Z,10.57
2022-11-25T01:48:03.135Z,11.23
2022-11-25T01:48:52.905Z,11.65
2022-11-25T01:49:47.653Z,11.77
2022-11-25T01:50:35.694Z,11.52
2022-11-25T01:51:34.124Z,10.77
2022-11-25T01:52:33.424Z,12.43
2022-11-25T01:53:21.001Z,11.48
2022-11-25T01:54:11.910Z,11.63
2022-11-25T01:55:15.025Z,13.23
2022-11-25T01:56:03.774Z,11.40
2022-11-25T01:56:54.379Z,11.07
2022-11-25T01:58:38.193Z,10.88
2022-11-25T01:59:25.680Z,11.38
2022-11-25T02:00:13.152Z,11.12
2022-11-25T02:01:00.424Z,10.77
2022-11-25T02:01:47.631Z,10.77
2022-11-25T02:02:34.793Z,10.68
2022-11-25T02:03:30.220Z,12.35
2022-11-25T02:04:19.710Z,11.05
2022-11-25T02:05:13.385Z,11.77
2022-11-25T02:06:14.119Z,11.50
2022-11-25T02:07:10.429Z,11.38
2022-11-25T02:07:57.961Z,11.35
2022-11-25T02:08:48.927Z,11.70
2022-11-25T02:09:38.064Z,11.77
2022-11-25T02:10:28.096Z,12.48
2022-11-25T02:11:15.338Z,11.82
2022-11-25T02:12:02.688Z,11.02
2022-11-25T02:12:49.817Z,11.27
2022-11-25T02:13:37.337Z,10.52
2022-11-25T02:14:25.596Z,11.43
2022-11-25T02:15:13.432Z,11.05
2022-11-25T02:16:00.765Z,11.57
2022-11-25T02:16:47.998Z,11.63
2022-11-25T02:17:35.153Z,11.43
2022-11-25T02:18:22.087Z,11.93
2022-11-25T02:19:26.289Z,11.15
2022-11-25T02:20:19.245Z,10.38
2022-11-25T02:21:06.471Z,10.43
2022-11-25T02:21:57.378Z,10.45
2022-11-25T02:23:00.675Z,10.45
2022-11-25T02:23:54.126Z,11.10
2022-11-25T02:24:45.993Z,10.63
2022-11-25T02:25:37.663Z,10.20
2022-11-25T02:26:24.775Z,10.27
2022-11-25T02:27:11.737Z,10.27
2022-11-25T02:28:03.405Z,11.40
2022-11-25T02:28:50.654Z,10.68
2022-11-25T02:29:38.232Z,12.63
2022-11-25T02:30:25.275Z,11.38
2022-11-25T02:31:12.266Z,11.52
2022-11-25T02:31:59.314Z,10.88
2022-11-25T02:32:47.852Z,11.40
2022-11-25T02:33:34.850Z,11.73
2022-11-25T02:34:21.869Z,11.45
2022-11-25T02:35:25.597Z,10.95
2022-11-25T02:36:16.541Z,11.57
2022-11-25T02:37:03.649Z,11.30
2022-11-25T02:37:50.657Z,11.32
2022-11-25T02:38:42.710Z,11.23
2022-11-25T02:39:29.610Z,11.02
2022-11-25T02:40:16.748Z,10.82
2022-11-25T02:41:08.607Z,11.45
2022-11-25T02:41:58.099Z,11.88
2022-11-25T02:42:45.961Z,11.10
2022-11-25T02:43:33.040Z,11.48
2022-11-25T02:44:20.650Z,11.48
2022-11-25T02:45:12.406Z,11.00
2022-11-25T02:46:08.223Z,11.12
2022-11-25T02:46:55.158Z,10.95
2022-11-25T02:47:42.160Z,11.55
2022-11-25T02:49:06.960Z,11.68
2022-11-25T02:49:39.724Z,9.63
2022-11-25T02:50:26.658Z,11.48
2022-11-25T02:51:17.110Z,10.82
2022-11-25T02:52:04.065Z,10.98
2022-11-25T02:52:51.124Z,10.40
2022-11-25T02:53:38.645Z,10.75
2022-11-25T02:54:25.601Z,10.88
2022-11-25T02:55:12.644Z,11.40
2022-11-25T02:55:59.711Z,10.15
2022-11-25T02:56:46.648Z,11.75
2022-11-25T02:57:33.632Z,10.63
2022-11-25T02:58:20.639Z,11.20
2022-11-25T02:59:08.228Z,10.57
2022-11-25T02:59:55.200Z,11.20
2022-11-25T03:00:42.747Z,11.40
2022-11-25T03:01:31.747Z,11.60
2022-11-25T03:02:18.983Z,10.80
2022-11-25T03:03:06.052Z,11.30
2022-11-25T03:03:53.077Z,11.25
2022-11-25T03:04:39.969Z,11.27
2022-11-25T03:05:26.968Z,11.50
2022-11-25T03:06:14.168Z,10.70
2022-11-25T03:07:01.068Z,10.68
2022-11-25T03:07:48.154Z,10.90
2022-11-25T03:08:36.341Z,11.02
2022-11-25T03:09:23.311Z,10.65
2022-11-25T03:10:10.465Z,11.52
2022-11-25T03:10:57.416Z,11.07
2022-11-25T03:12:03.086Z,12.15
2022-11-25T03:12:50.234Z,10.63
2022-11-25T03:13:37.299Z,10.80
2022-11-25T03:14:24.471Z,10.88
2022-11-25T03:15:11.640Z,10.80
2022-11-25T03:15:58.622Z,11.75
2022-11-25T03:16:45.731Z,11.73
2022-11-25T03:17:33.209Z,11.05
2022-11-25T03:18:20.211Z,11.23
2022-11-25T03:19:08.731Z,11.60
2022-11-25T03:19:55.821Z,10.15
2022-11-25T03:20:42.695Z,11.15
2022-11-25T03:21:29.624Z,11.23
2022-11-25T03:22:16.592Z,11.38
2022-11-25T03:23:04.506Z,11.48
2022-11-25T03:23:51.429Z,11.00
2022-11-25T03:24:38.487Z,11.07
2022-11-25T03:25:25.758Z,10.95
2022-11-25T03:26:12.752Z,10.25
2022-11-25T03:26:59.746Z,11.45
2022-11-25T03:27:47.277Z,10.85
2022-11-25T03:28:34.240Z,11.55
2022-11-25T03:29:21.123Z,11.07
2022-11-25T03:30:12.813Z,10.98
2022-11-25T03:30:59.703Z,12.32
2022-11-25T03:31:46.660Z,12.35
2022-11-25T03:32:33.688Z,10.70
2022-11-25T03:33:20.669Z,10.77
2022-11-25T03:34:07.730Z,11.43
2022-11-25T03:34:54.665Z,10.60
2022-11-25T03:35:41.670Z,9.80
2022-11-25T03:36:28.627Z,10.93
2022-11-25T03:37:15.789Z,10.98
2022-11-25T03:38:02.742Z,11.15
2022-11-25T03:38:49.737Z,10.65
2022-11-25T03:39:36.786Z,11.07
2022-11-25T03:40:23.942Z,10.80
2022-11-25T03:41:10.978Z,11.05
2022-11-25T03:41:57.956Z,10.85
2022-11-25T03:42:45.178Z,10.23
2022-11-25T03:43:33.295Z,10.40
2022-11-25T03:44:20.241Z,10.60
2022-11-25T03:45:08.278Z,10.55
2022-11-25T03:45:55.311Z,10.95
2022-11-25T03:46:42.350Z,10.38
2022-11-25T03:47:29.410Z,9.95
2022-11-25T03:48:16.613Z,10.73
2022-11-25T03:49:03.702Z,10.80
2022-11-25T03:49:50.777Z,11.32
2022-11-25T03:50:37.814Z,11.18
2022-11-25T03:51:24.779Z,10.35
2022-11-25T03:52:11.919Z,9.98
2022-11-25T03:52:58.842Z,10.68
2022-11-25T03:53:45.818Z,11.43
2022-11-25T03:54:32.852Z,10.40
2022-11-25T03:55:20.491Z,10.18
2022-11-25T03:56:07.930Z,10.45
2022-11-25T03:56:54.888Z,11.05
2022-11-25T03:57:41.869Z,10.45
2022-11-25T03:58:28.797Z,9.80
2022-11-25T03:59:15.774Z,10.20
2022-11-25T04:00:03.158Z,9.57
2022-11-25T04:00:50.190Z,9.43
2022-11-25T04:01:42.777Z,9.90
2022-11-25T04:02:31.105Z,9.70
2022-11-25T04:03:18.139Z,10.55
2022-11-25T04:04:06.065Z,11.12
2022-11-25T04:04:53.157Z,9.98
2022-11-25T04:05:40.084Z,10.82
2022-11-25T04:06:27.202Z,10.55
2022-11-25T04:07:14.214Z,10.48
2022-11-25T04:08:01.244Z,10.30
2022-11-25T04:08:48.470Z,10.45
2022-11-25T04:09:35.442Z,9.98
2022-11-25T04:10:22.390Z,10.15
2022-11-25T04:11:09.286Z,10.93
2022-11-25T04:12:14.784Z,10.10
2022-11-25T04:13:01.719Z,9.68
2022-11-25T04:13:48.801Z,11.05
2022-11-25T04:14:36.100Z,10.80
2022-11-25T04:15:23.246Z,10.65
2022-11-25T04:16:39.574Z,10.18
2022-11-25T04:17:26.822Z,10.10
2022-11-25T04:18:14.855Z,10.25
2022-11-25T04:19:01.776Z,9.95
2022-11-25T04:19:48.719Z,10.50
2022-11-25T04:20:35.517Z,9.77
2022-11-25T04:21:22.383Z,10.52
2022-11-25T04:22:09.384Z,9.70
2022-11-25T04:22:56.407Z,9.80
2022-11-25T04:23:43.394Z,10.18
2022-11-25T04:24:30.443Z,10.25
2022-11-25T04:25:17.400Z,9.82
2022-11-25T04:26:04.389Z,9.18
2022-11-25T04:26:51.729Z,10.23
2022-11-25T04:27:38.796Z,9.65
2022-11-25T04:28:25.696Z,10.57
2022-11-25T04:29:12.675Z,9.95
2022-11-25T04:29:59.909Z,9.80
2022-11-25T04:30:46.960Z,9.70
2022-11-25T04:31:34.024Z,9.80
2022-11-25T04:32:21.237Z,9.80
2022-11-25T04:33:08.245Z,10.05
2022-11-25T04:33:55.252Z,10.57
2022-11-25T04:34:42.269Z,10.10
2022-11-25T04:35:29.306Z,9.43
2022-11-25T04:36:16.367Z,10.10
2022-11-25T04:37:03.376Z,9.85
2022-11-25T04:37:50.489Z,10.10
2022-11-25T04:38:37.466Z,9.75
2022-11-25T04:39:24.370Z,9.57
2022-11-25T04:40:11.935Z,9.88
2022-11-25T04:40:59.012Z,9.95
2022-11-25T04:41:45.932Z,10.38
2022-11-25T04:42:33.031Z,9.75
2022-11-25T04:43:19.889Z,10.48
2022-11-25T04:44:06.768Z,10.45
2022-11-25T04:45:21.013Z,10.18
2022-11-25T04:46:16.376Z,10.23
2022-11-25T04:47:03.448Z,9.65
2022-11-25T04:47:51.538Z,9.98
2022-11-25T04:48:38.493Z,9.88
2022-11-25T04:49:25.349Z,9.23
2022-11-25T04:50:18.958Z,10.02
2022-11-25T04:51:06.081Z,10.05
2022-11-25T04:51:53.233Z,9.65
2022-11-25T04:52:40.232Z,11.27
2022-11-25T04:53:27.150Z,10.68
2022-11-25T04:54:17.477Z,9.93
2022-11-25T04:55:05.349Z,10.10
2022-11-25T04:55:52.310Z,10.32
2022-11-25T04:56:39.193Z,10.80
2022-11-25T04:57:26.324Z,10.80
2022-11-25T04:58:13.888Z,11.05
2022-11-25T04:59:19.604Z,10.18
2022-11-25T05:00:07.558Z,10.52
2022-11-25T05:00:54.484Z,10.70
2022-11-25T05:01:41.590Z,10.18
2022-11-25T05:02:29.424Z,11.50
2022-11-25T05:03:16.401Z,9.95
2022-11-25T05:04:03.452Z,10.70
2022-11-25T05:04:51.838Z,10.82
2022-11-25T05:05:39.611Z,10.50
2022-11-25T05:06:26.643Z,10.70
2022-11-25T05:07:15.111Z,10.38
2022-11-25T05:08:02.120Z,10.82
2022-11-25T05:08:49.739Z,10.95
2022-11-25T05:09:37.008Z,10.65
2022-11-25T05:10:24.246Z,10.25
2022-11-25T05:11:11.134Z,10.75
2022-11-25T05:11:58.249Z,11.18
2022-11-25T05:12:45.350Z,10.55
2022-11-25T05:13:32.251Z,10.90
2022-11-25T05:14:19.239Z,11.43
2022-11-25T05:15:08.218Z,11.77
2022-11-25T05:15:55.198Z,11.73
2022-11-25T05:16:42.186Z,10.70
2022-11-25T05:17:31.050Z,10.43
2022-11-25T05:18:18.014Z,11.18
2022-11-25T05:19:04.934Z,12.50
2022-11-25T05:19:52.566Z,11.77
2022-11-25T05:20:39.711Z,11.45
2022-11-25T05:21:26.671Z,11.70
2022-11-25T05:22:15.858Z,11.25
2022-11-25T05:23:02.803Z,11.12
2022-11-25T05:23:55.542Z,10.23
2022-11-25T05:24:43.167Z,11.12
2022-11-25T05:25:30.125Z,10.40
2022-11-25T05:26:17.109Z,10.75
2022-11-25T05:27:04.228Z,12.00
2022-11-25T05:27:51.114Z,12.02
2022-11-25T05:28:38.173Z,11.50
2022-11-25T05:29:25.100Z,10.82
2022-11-25T05:30:13.572Z,11.48
2022-11-25T05:31:00.627Z,11.68
2022-11-25T05:31:47.650Z,12.93
2022-11-25T05:32:34.594Z,11.88
2022-11-25T05:33:21.636Z,12.50
2022-11-25T05:34:08.610Z,11.63
2022-11-25T05:34:55.562Z,11.20
2022-11-25T05:35:42.538Z,12.37
2022-11-25T05:36:29.818Z,12.50
2022-11-25T05:37:21.171Z,11.15
2022-11-25T05:38:10.969Z,11.57
2022-11-25T05:38:58.212Z,10.82
2022-11-25T05:39:45.213Z,11.85
2022-11-25T05:40:32.314Z,11.40
2022-11-25T05:41:19.224Z,11.02
2022-11-25T05:42:06.249Z,11.07
2022-11-25T05:42:53.174Z,11.68
2022-11-25T05:43:40.304Z,11.70
2022-11-25T05:44:27.419Z,10.88
2022-11-25T05:45:14.266Z,11.32
2022-11-25T05:46:05.374Z,11.85
2022-11-25T05:46:52.664Z,11.88
2022-11-25T05:47:39.560Z,11.95
2022-11-25T05:48:26.510Z,12.37
2022-11-25T05:49:14.064Z,12.37
2022-11-25T05:50:01.041Z,11.90
2022-11-25T05:50:47.882Z,12.52
2022-11-25T05:51:34.797Z,12.02
2022-11-25T05:52:21.891Z,11.10
2022-11-25T05:53:08.878Z,12.43
2022-11-25T05:53:56.653Z,12.65
2022-11-25T05:54:43.561Z,12.80
2022-11-25T05:55:30.533Z,12.23
2022-11-25T05:56:17.892Z,11.73
2022-11-25T05:57:04.808Z,11.73
2022-11-25T05:57:51.819Z,11.90
2022-11-25T05:58:38.769Z,11.38
2022-11-25T05:59:25.582Z,11.25
2022-11-25T06:00:13.241Z,11.70
2022-11-25T06:01:00.240Z,11.77
2022-11-25T06:01:47.229Z,12.60
2022-11-25T06:02:34.205Z,11.70
2022-11-25T06:03:25.169Z,11.82
2022-11-25T06:04:12.340Z,11.38
2022-11-25T06:04:59.329Z,11.50
2022-11-25T06:05:46.203Z,11.50
2022-11-25T06:06:33.379Z,11.40
2022-11-25T06:07:20.664Z,11.77
2022-11-25T06:08:08.196Z,11.75
2022-11-25T06:08:55.239Z,11.68
2022-11-25T06:09:42.241Z,11.07
2022-11-25T06:10:29.265Z,11.82
2022-11-25T06:11:17.421Z,12.02
2022-11-25T06:12:04.715Z,11.73
2022-11-25T06:12:53.557Z,12.13
2022-11-25T06:13:41.460Z,11.45
2022-11-25T06:14:28.467Z,10.80
2022-11-25T06:15:15.595Z,11.63
2022-11-25T06:16:08.245Z,12.18
2022-11-25T06:16:55.213Z,11.88
2022-11-25T06:17:42.211Z,11.52
2022-11-25T06:18:29.093Z,11.73
2022-11-25T06:19:16.069Z,12.18
2022-11-25T06:20:03.051Z,11.45
2022-11-25T06:20:57.788Z,11.70
2022-11-25T06:21:44.732Z,11.12
2022-11-25T06:22:31.644Z,11.68
2022-11-25T06:23:18.678Z,11.77
2022-11-25T06:24:05.870Z,12.07
2022-11-25T06:25:00.400Z,11.38
2022-11-25T06:25:50.945Z,11.50
2022-11-25T06:26:37.859Z,12.37
2022-11-25T06:27:24.717Z,12.35
2022-11-25T06:28:13.058Z,11.55
2022-11-25T06:29:00.393Z,10.90
2022-11-25T06:29:47.390Z,11.70
2022-11-25T06:30:34.358Z,11.40
2022-11-25T06:31:24.490Z,12.23
2022-11-25T06:32:11.665Z,11.35
2022-11-25T06:32:58.703Z,12.20
2022-11-25T06:33:50.251Z,12.07
2022-11-25T06:34:42.106Z,11.52
2022-11-25T06:35:29.069Z,12.00
2022-11-25T06:36:19.753Z,11.60
2022-11-25T06:37:53.449Z,11.32
2022-11-25T06:38:40.391Z,11.25
2022-11-25T06:39:27.821Z,11.95
2022-11-25T06:40:14.817Z,12.40
2022-11-25T06:41:03.150Z,12.00
2022-11-25T06:41:50.059Z,11.98
2022-11-25T06:42:38.989Z,12.43
2022-11-25T06:43:25.891Z,12.35
2022-11-25T06:44:13.272Z,11.82
2022-11-25T06:45:00.300Z,11.52
2022-11-25T06:45:47.266Z,12.13
2022-11-25T06:46:34.636Z,12.40
2022-11-25T06:47:21.822Z,11.27
2022-11-25T06:48:08.738Z,12.37
2022-11-25T06:48:55.769Z,12.27
2022-11-25T06:49:42.705Z,11.75
2022-11-25T06:50:29.628Z,12.05
2022-11-25T06:51:16.956Z,11.98
2022-11-25T06:52:04.128Z,11.05
2022-11-25T06:52:51.020Z,11.38
2022-11-25T06:53:38.840Z,11.12
2022-11-25T06:54:25.839Z,10.80
2022-11-25T06:55:12.673Z,11.32
2022-11-25T06:56:07.069Z,10.95
2022-11-25T06:56:54.155Z,11.07
2022-11-25T06:57:41.244Z,10.18
2022-11-25T06:58:35.992Z,11.32
2022-11-25T06:59:23.555Z,11.73
2022-11-25T07:00:10.888Z,11.32
2022-11-25T07:01:02.576Z,10.75
2022-11-25T07:01:49.589Z,11.68
2022-11-25T07:02:42.909Z,11.32
2022-11-25T07:03:32.342Z,10.63
2022-11-25T07:04:19.257Z,10.65
2022-11-25T07:05:06.382Z,11.35
2022-11-25T07:05:57.123Z,10.85
2022-11-25T07:06:44.092Z,11.43
2022-11-25T07:07:31.048Z,10.68
2022-11-25T07:08:18.074Z,10.75
2022-11-25T07:09:05.708Z,10.48
2022-11-25T07:09:52.592Z,10.32
2022-11-25T07:10:39.472Z,10.40
2022-11-25T07:11:34.671Z,11.10
2022-11-25T07:12:21.584Z,11.80
2022-11-25T07:13:08.502Z,11.30
2022-11-25T07:13:59.113Z,10.63
2022-11-25T07:15:35.180Z,9.90
2022-11-25T07:16:22.664Z,10.70
2022-11-25T07:17:12.168Z,11.48
2022-11-25T07:17:59.347Z,10.70
2022-11-25T07:18:46.493Z,10.38
2022-11-25T07:19:35.816Z,11.57
2022-11-25T07:20:22.813Z,10.77
2022-11-25T07:21:22.018Z,11.20
2022-11-25T07:22:09.118Z,11.30
2022-11-25T07:22:56.147Z,10.90
2022-11-25T07:23:45.167Z,11.45
2022-11-25T07:24:34.133Z,10.43
2022-11-25T07:25:22.829Z,11.20
2022-11-25T07:26:15.240Z,10.63
2022-11-25T07:27:02.778Z,10.60
2022-11-25T07:27:49.992Z,11.35
2022-11-25T07:28:37.443Z,10.88
2022-11-25T07:31:42.397Z,10.25
2022-11-25T07:32:29.299Z,10.77
2022-11-25T07:33:16.258Z,10.27
2022-11-25T07:34:10.202Z,10.57
2022-11-25T07:34:57.024Z,11.10
2022-11-25T07:35:44.047Z,11.70
2022-11-25T07:36:32.543Z,11.48
2022-11-25T07:37:19.524Z,10.43
2022-11-25T07:38:06.518Z,10.68
2022-11-25T07:38:53.561Z,10.77
2022-11-25T07:39:40.511Z,10.70
2022-11-25T07:40:27.471Z,10.00
2022-11-25T07:41:17.123Z,11.30
2022-11-25T07:42:04.190Z,11.57
2022-11-25T07:42:51.241Z,11.12
2022-11-25T07:43:38.509Z,11.48
2022-11-25T07:44:25.640Z,10.68
2022-11-25T07:45:12.538Z,9.77
2022-11-25T07:46:40.678Z,10.55
2022-11-25T07:47:27.756Z,10.63
2022-11-25T07:48:14.670Z,10.73
2022-11-25T07:49:07.169Z,10.65
2022-11-25T07:49:54.182Z,9.90
2022-11-25T07:50:41.033Z,10.98
2022-11-25T07:51:29.309Z,11.10
2022-11-25T07:52:16.193Z,11.12
2022-11-25T07:53:03.250Z,11.02
2022-11-25T07:53:51.208Z,10.75
2022-11-25T07:54:38.231Z,10.60
2022-11-25T07:55:25.215Z,10.93
2022-11-25T07:56:12.600Z,11.55
2022-11-25T07:56:59.845Z,11.35
2022-11-25T07:57:46.796Z,11.02
2022-11-25T07:58:33.751Z,11.35
2022-11-25T07:59:22.668Z,11.75
2022-11-25T08:00:10.271Z,12.73
2022-11-25T08:00:57.617Z,11.50
2022-11-25T08:01:44.899Z,11.88
2022-11-25T08:02:32.020Z,11.12
2022-11-25T08:03:19.088Z,10.05
2022-11-25T08:04:08.331Z,12.37
2022-11-25T08:04:55.179Z,11.50
2022-11-25T08:05:42.233Z,11.05
2022-11-25T08:06:29.818Z,10.98
2022-11-25T08:07:16.964Z,11.20
2022-11-25T08:08:04.232Z,11.30
2022-11-25T08:08:54.828Z,10.80
2022-11-25T08:09:41.822Z,10.63
2022-11-25T08:10:28.769Z,10.00
2022-11-25T08:11:18.039Z,10.43
2022-11-25T08:12:05.148Z,10.00
2022-11-25T08:12:52.082Z,10.27
2022-11-25T08:13:39.266Z,10.52
2022-11-25T08:14:26.801Z,10.85
2022-11-25T08:15:13.759Z,11.35
2022-11-25T08:16:01.317Z,10.68
2022-11-25T08:16:48.281Z,10.73
2022-11-25T08:17:35.275Z,11.65
2022-11-25T08:18:22.299Z,10.52
2022-11-25T08:19:12.133Z,10.93
2022-11-25T08:19:59.075Z,10.15
2022-11-25T08:20:46.061Z,8.90
2022-11-25T08:21:33.293Z,9.40
2022-11-25T08:22:20.453Z,9.13
2022-11-25T08:23:07.496Z,9.25
2022-11-25T08:23:55.274Z,9.25
2022-11-25T08:24:42.209Z,8.48
2022-11-25T08:25:31.967Z,8.75
2022-11-25T08:26:31.212Z,8.18
2022-11-25T08:27:18.180Z,8.95
2022-11-25T08:28:05.362Z,8.63
2022-11-25T08:28:53.512Z,8.35
2022-11-25T08:29:40.403Z,8.48
2022-11-25T08:30:27.952Z,8.40
2022-11-25T08:31:19.104Z,8.68
2022-11-25T08:32:11.730Z,8.10
2022-11-25T08:33:00.277Z,8.68
2022-11-25T08:33:48.517Z,8.65
2022-11-25T08:34:35.600Z,7.65
2022-11-25T08:35:22.645Z,8.68
2022-11-25T08:36:10.183Z,8.02
2022-11-25T08:36:57.158Z,8.45
2022-11-25T08:37:44.134Z,8.35
2022-11-25T08:38:31.097Z,7.90
2022-11-25T08:40:27.165Z,8.20
2022-11-25T08:41:18.483Z,8.63
2022-11-25T08:42:06.438Z,8.38
2022-11-25T08:42:53.369Z,8.85
2022-11-25T08:43:40.728Z,8.45
2022-11-25T08:44:28.975Z,7.90
2022-11-25T08:45:16.041Z,8.20
2022-11-25T08:46:08.888Z,8.48
2022-11-25T08:46:56.527Z,8.10
2022-11-25T08:47:43.616Z,8.48
2022-11-25T08:48:30.625Z,8.25
2022-11-25T08:49:19.549Z,8.55
2022-11-25T08:50:10.199Z,8.85
2022-11-25T08:51:44.392Z,9.32
2022-11-25T08:52:31.518Z,10.60
2022-11-25T08:53:19.049Z,9.88
2022-11-25T08:54:07.982Z,8.90
2022-11-25T08:54:55.223Z,9.40
2022-11-25T08:55:42.251Z,10.00
2022-11-25T08:56:29.400Z,11.68
2022-11-25T08:57:16.607Z,10.82
2022-11-25T08:58:03.744Z,11.15
2022-11-25T08:58:51.098Z,11.50
2022-11-25T08:59:39.547Z,11.85
2022-11-25T09:00:26.654Z,11.40
2022-11-25T09:01:14.465Z,11.45
2022-11-25T09:02:01.714Z,11.25
2022-11-25T09:02:49.043Z,11.93
2022-11-25T09:03:39.088Z,11.52
2022-11-25T09:04:26.394Z,12.00
2022-11-25T09:05:16.424Z,13.40
2022-11-25T09:06:03.834Z,12.90
2022-11-25T09:06:51.292Z,13.80
2022-11-25T09:07:38.220Z,13.32
2022-11-25T09:08:26.074Z,13.75
2022-11-25T09:09:13.076Z,13.05
2022-11-25T09:10:00.202Z,13.60
2022-11-25T09:10:47.451Z,14.15
2022-11-25T09:11:34.503Z,13.05
2022-11-25T09:12:21.629Z,13.13
2022-11-25T09:13:10.712Z,13.20
2022-11-25T09:13:57.837Z,13.52
2022-11-25T09:14:44.829Z,13.02
2022-11-25T09:15:32.823Z,13.32
2022-11-25T09:16:21.110Z,14.10
2022-11-25T09:17:12.315Z,12.82
2022-11-25T09:18:06.899Z,14.13
2022-11-25T09:18:56.133Z,13.32
2022-11-25T09:19:43.563Z,12.73
2022-11-25T09:20:31.519Z,12.77
2022-11-25T09:21:18.717Z,12.57
2022-11-25T09:22:05.841Z,12.40
2022-11-25T09:22:52.868Z,11.70
2022-11-25T09:23:40.109Z,10.90
2022-11-25T09:24:27.163Z,11.35
2022-11-25T09:25:14.190Z,11.07
2022-11-25T09:26:01.294Z,10.35
2022-11-25T09:26:49.665Z,10.50
2022-11-25T09:27:36.939Z,10.02
2022-11-25T09:28:26.121Z,10.30
2022-11-25T09:29:14.239Z,10.27
2022-11-25T09:30:01.208Z,10.05
2022-11-25T09:30:48.366Z,8.70
2022-11-25T09:31:35.384Z,8.88
2022-11-25T09:32:22.475Z,8.63
2022-11-25T09:33:09.563Z,8.05
2022-11-25T09:33:57.111Z,8.57
2022-11-25T09:34:44.009Z,8.60
2022-11-25T09:35:31.102Z,9.00
2022-11-25T09:36:18.936Z,8.10
2022-11-25T09:37:06.139Z,7.90
2022-11-25T09:37:53.208Z,8.18
2022-11-25T09:38:43.239Z,7.65
2022-11-25T09:39:31.181Z,9.10
2022-11-25T09:40:20.115Z,9.18
2022-11-25T09:41:55.548Z,9.00
2022-11-25T09:43:13.846Z,8.82
2022-11-25T09:44:33.577Z,8.25
2022-11-25T09:45:41.941Z,7.97
2022-11-25T09:46:47.854Z,7.30
2022-11-25T09:47:57.021Z,7.97
2022-11-25T09:49:15.283Z,7.87
2022-11-25T09:50:35.938Z,7.15
2022-11-25T09:51:26.152Z,7.68
2022-11-25T09:52:16.096Z,7.55
2022-11-25T09:53:37.161Z,7.25
2022-11-25T09:54:37.922Z,7.32
2022-11-25T09:55:26.426Z,6.60
2022-11-25T09:56:27.625Z,6.78
2022-11-25T09:57:24.690Z,6.50
2022-11-25T09:58:22.851Z,6.40
2022-11-25T09:59:21.779Z,5.78
2022-11-25T10:00:16.409Z,6.00
2022-11-25T10:01:08.072Z,6.50
2022-11-25T10:02:01.116Z,6.10
2022-11-25T10:02:52.625Z,6.10
2022-11-25T10:03:42.175Z,5.60
2022-11-25T10:04:43.223Z,6.10
2022-11-25T10:05:38.384Z,6.05
2022-11-25T10:06:27.945Z,5.80
2022-11-25T10:07:23.270Z,5.35
2022-11-25T10:08:17.588Z,5.47
2022-11-25T10:09:25.932Z,5.30
2022-11-25T10:10:23.169Z,5.43
2022-11-25T10:11:23.193Z,5.10
2022-11-25T10:12:29.633Z,5.65
2022-11-25T10:13:21.699Z,5.35
2022-11-25T10:14:08.633Z,5.47
2022-11-25T10:15:01.566Z,5.50
2022-11-25T10:15:50.938Z,5.53
2022-11-25T10:16:53.162Z,5.40
2022-11-25T10:17:52.296Z,6.07
2022-11-25T10:18:44.419Z,5.72
2022-11-25T10:19:34.443Z,5.60
2022-11-25T10:20:27.077Z,6.12
2022-11-25T10:21:14.033Z,5.93
2022-11-25T10:22:26.634Z,5.40
2022-11-25T10:23:22.277Z,6.22
2022-11-25T10:24:15.165Z,6.07
2022-11-25T10:25:25.768Z,6.22
2022-11-25T10:26:16.909Z,6.22
2022-11-25T10:27:06.779Z,6.25
2022-11-25T10:27:56.825Z,6.75
2022-11-25T10:29:22.540Z,7.12
2022-11-25T10:30:24.374Z,6.93
2022-11-25T10:31:11.293Z,6.05
2022-11-25T10:32:23.358Z,7.15
2022-11-25T10:33:29.040Z,6.22
2022-11-25T10:34:30.839Z,6.10
2022-11-25T10:35:29.243Z,5.93
2022-11-25T10:36:22.580Z,6.53
2022-11-25T10:37:19.771Z,6.60
2022-11-25T10:38:17.386Z,6.32
2022-11-25T10:39:18.937Z,5.95
2022-11-25T10:40:06.822Z,6.30
2022-11-25T10:40:55.327Z,6.30
2022-11-25T10:41:57.190Z,6.40
2022-11-25T10:42:44.275Z,6.62
2022-11-25T10:43:32.495Z,6.62
2022-11-25T10:44:32.964Z,6.70
2022-11-25T10:45:24.211Z,6.70
2022-11-25T10:46:22.664Z,6.78
2022-11-25T10:47:45.413Z,6.82